Tigerville, South Carolina
Current Conditions -  °F | °C
As of 2:53 AM on Thursday 18 Dec 2014 (Local Time) from KGMU Reporting Station
Clear Clear  
Wind Chill: 39°   Ceiling: Unl
Heat Index: 43°   Visibility: 10mi
Dew Point: 24°   Wind: 7mph
Humidity: 47%   Direction: 360°N
Pressure: 30.09"   Gusts: NA
Location:  35.07°N, 82.37°W
Report Text: KGMU 180753Z AUTO 36006KT 10SM CLR 06/M04 A3009 RMK AO2 SLP190 T00611044
Loading
Personal Weather Stations






























Interactive Weather Map New forecast layout! Learn more

10-Day Weather Forecast

Advertisements
Track Severe Weather on mobile